Time;durP1;ratioP1;P1;durP2;ratioP2;P2;SDS_P1;SDS_P2;PMS_P1;PMS_P2;Temp;Humidity;BMP_temperature;BMP_pressure;BME280_temperature;BME280_humidity;BME280_pressure;Samples;Min_cycle;Max_cycle;Signal;HPM_P1;HPM_P2
2021/08/04 00:01:24;;;;;;;21.52;19.95;;;15.00;99.90;;;;;;6186351;23;20312;-77
2021/08/04 00:03:51;;;;;;;30.27;27.77;;;15.00;99.90;;;;;;6222376;23;20012;-77
2021/08/04 00:06:17;;;;;;;35.00;32.20;;;15.00;99.90;;;;;;6215730;23;20013;-77
2021/08/04 00:08:42;;;;;;;36.80;33.80;;;15.00;99.90;;;;;;6222496;23;20036;-77
2021/08/04 00:11:08;;;;;;;19.65;18.15;;;15.00;99.90;;;;;;6186058;23;20337;-76
2021/08/04 00:13:34;;;;;;;29.52;27.30;;;14.90;99.90;;;;;;6197167;23;20009;-77
2021/08/04 00:16:00;;;;;;;22.75;21.00;;;15.00;99.90;;;;;;6167158;23;20017;-77
2021/08/04 00:18:26;;;;;;;39.33;36.15;;;14.90;99.90;;;;;;6182681;23;20386;-77
2021/08/04 00:20:53;;;;;;;22.75;21.00;;;14.90;99.90;;;;;;6156950;23;20047;-77
2021/08/04 00:23:19;;;;;;;31.42;28.92;;;14.90;99.90;;;;;;6191636;23;20013;-77
2021/08/04 00:25:44;;;;;;;34.92;32.08;;;14.90;99.90;;;;;;6193450;23;20088;-77
2021/08/04 00:28:10;;;;;;;22.45;20.88;;;14.80;99.90;;;;;;6156580;23;20016;-77
2021/08/04 00:30:36;;;;;;;48.40;44.28;;;14.80;99.90;;;;;;6156151;23;20013;-77
2021/08/04 00:33:02;;;;;;;31.38;28.75;;;14.90;99.90;;;;;;6193246;23;20021;-77
2021/08/04 00:35:28;;;;;;;59.22;53.28;;;14.90;99.90;;;;;;6189792;23;20260;-77
2021/08/04 00:37:53;;;;;;;30.55;28.02;;;14.90;99.90;;;;;;6192814;23;20017;-77
2021/08/04 00:40:20;;;;;;;36.53;33.53;;;14.90;99.90;;;;;;6165070;23;20021;-77
2021/08/04 00:42:45;;;;;;;30.83;28.58;;;14.90;99.90;;;;;;6156345;23;20075;-77
2021/08/04 00:45:12;;;;;;;34.17;31.10;;;14.80;99.90;;;;;;6193046;23;20012;-77
2021/08/04 00:47:38;;;;;;;27.00;25.02;;;14.90;99.90;;;;;;6182453;23;20013;-77
2021/08/04 00:50:04;;;;;;;24.17;22.27;;;14.90;99.90;;;;;;6182009;23;20017;-77
2021/08/04 00:52:30;;;;;;;41.17;37.78;;;14.90;99.90;;;;;;6193642;23;20013;-77
2021/08/04 00:54:56;;;;;;;44.60;40.47;;;14.80;99.90;;;;;;6155382;23;20028;-77
2021/08/04 00:57:22;;;;;;;41.72;38.40;;;14.90;99.90;;;;;;6191913;23;20102;-77
2021/08/04 00:59:48;;;;;;;56.13;50.90;;;14.90;99.90;;;;;;6193189;23;20027;-77
2021/08/04 01:02:18;;;;;;;46.50;42.28;;;14.90;99.90;;;;;;6165759;23;20013;-77
2021/08/04 01:05:00;;;;;;;19.00;17.42;;;14.90;99.90;;;;;;6190546;23;20036;-77
2021/08/04 01:07:31;;;;;;;34.55;31.80;;;14.90;99.90;;;;;;6159440;23;20020;-77
2021/08/04 01:10:19;;;;;;;25.73;23.73;;;14.90;99.90;;;;;;6191250;23;20013;-77
2021/08/04 01:13:15;;;;;;;31.52;28.98;;;14.90;99.90;;;;;;6192058;23;20381;-77
2021/08/04 01:15:50;;;;;;;26.45;24.15;;;14.90;99.90;;;;;;6181375;23;20039;-77
2021/08/04 01:18:22;;;;;;;28.60;23.20;;;14.90;99.90;;;;;;6210097;23;20428;-77
2021/08/04 01:20:48;;;;;;;39.15;35.92;;;14.80;99.90;;;;;;6185669;23;20099;-77
2021/08/04 01:23:51;;;;;;;22.70;20.95;;;14.80;99.90;;;;;;6185521;23;20017;-77
2021/08/04 01:26:37;;;;;;;18.25;16.88;;;14.90;99.90;;;;;;6222350;23;20013;-77
2021/08/04 01:29:06;;;;;;;27.75;25.45;;;14.90;99.90;;;;;;6222994;23;20024;-77
2021/08/04 01:31:34;;;;;;;45.95;42.28;;;14.90;99.90;;;;;;6213100;23;20020;-77
2021/08/04 01:34:01;;;;;;;20.27;18.80;;;15.00;99.90;;;;;;6223070;23;20065;-77
2021/08/04 01:36:28;;;;;;;33.15;30.27;;;14.90;99.90;;;;;;6185386;23;20039;-77
2021/08/04 01:38:57;;;;;;;29.73;27.42;;;14.90;99.90;;;;;;6220133;23;20013;-77
2021/08/04 01:41:24;;;;;;;47.65;43.55;;;14.90;99.90;;;;;;6195370;23;20012;-77
2021/08/04 01:43:51;;;;;;;40.17;36.80;;;14.90;99.90;;;;;;6221933;23;20015;-78
2021/08/04 01:46:18;;;;;;;24.00;22.17;;;14.90;99.90;;;;;;6222628;23;20070;-77
2021/08/04 01:48:44;;;;;;;21.02;19.52;;;15.00;99.90;;;;;;6212251;23;20044;-78
2021/08/04 01:51:11;;;;;;;30.38;28.00;;;14.90;99.90;;;;;;6212415;23;20512;-77
2021/08/04 01:53:40;;;;;;;40.67;37.35;;;14.90;99.90;;;;;;6221247;23;20028;-77
2021/08/04 01:56:07;;;;;;;22.60;20.95;;;14.90;99.90;;;;;;6196080;23;20017;-77
2021/08/04 01:58:33;;;;;;;27.15;25.05;;;14.90;99.90;;;;;;6211154;23;20009;-77
2021/08/04 02:00:59;;;;;;;32.15;29.67;;;14.90;99.90;;;;;;6185135;23;20028;-78
2021/08/04 02:03:25;;;;;;;39.42;36.17;;;14.90;99.90;;;;;;6184941;23;20448;-77
2021/08/04 02:05:52;;;;;;;28.08;25.98;;;14.90;99.90;;;;;;6217231;23;20023;-77
2021/08/04 02:08:43;;;;;;;43.90;40.25;;;14.90;99.90;;;;;;6218517;23;20017;-77
2021/08/04 02:11:20;;;;;;;51.53;47.05;;;14.90;99.90;;;;;;6183792;23;20012;-77
2021/08/04 02:13:49;;;;;;;40.03;36.70;;;14.90;99.90;;;;;;6210993;23;20071;-77
2021/08/04 02:16:30;;;;;;;26.42;24.27;;;14.90;99.90;;;;;;6222362;23;20019;-77
2021/08/04 02:19:15;;;;;;;27.83;25.48;;;15.00;99.90;;;;;;6222518;23;20429;-77
2021/08/04 02:21:43;;;;;;;37.22;34.38;;;14.90;99.90;;;;;;6185643;23;20017;-77
2021/08/04 02:24:15;;;;;;;43.33;39.92;;;15.00;99.90;;;;;;6193750;23;20019;-78
2021/08/04 02:26:43;;;;;;;56.28;46.92;;;15.00;99.90;;;;;;6221640;23;20017;-77
2021/08/04 02:29:11;;;;;;;19.35;17.92;;;15.10;99.90;;;;;;6222227;23;20088;-78
2021/08/04 02:31:38;;;;;;;29.70;27.27;;;15.00;99.90;;;;;;6220731;23;20023;-77
2021/08/04 02:34:04;;;;;;;20.65;19.08;;;15.00;99.90;;;;;;6185639;23;20028;-77
2021/08/04 02:36:29;;;;;;;33.28;30.45;;;15.00;99.90;;;;;;6185161;23;20025;-77
2021/08/04 02:39:01;;;;;;;31.23;28.75;;;15.00;99.90;;;;;;6184319;23;20022;-77
2021/08/04 02:41:32;;;;;;;32.35;29.85;;;15.00;99.90;;;;;;6221736;23;20171;-77
2021/08/04 02:43:59;;;;;;;31.80;29.38;;;15.10;99.90;;;;;;6221698;23;20040;-78
2021/08/04 02:46:25;;;;;;;22.90;20.98;;;15.10;99.90;;;;;;6194726;23;20013;-77
2021/08/04 02:48:51;;;;;;;19.92;18.38;;;15.10;99.90;;;;;;6184670;23;20045;-78
2021/08/04 02:51:21;;;;;;;26.65;24.65;;;15.10;99.90;;;;;;6190895;23;20127;-77
2021/08/04 02:53:54;;;;;;;29.15;27.10;;;15.10;99.90;;;;;;6221575;23;20094;-78
2021/08/04 02:56:19;;;;;;;38.88;35.88;;;15.00;99.90;;;;;;6184888;23;20136;-78
2021/08/04 02:58:45;;;;;;;27.85;25.60;;;15.10;99.90;;;;;;6184900;23;20017;-78
2021/08/04 03:01:11;;;;;;;18.92;17.60;;;15.10;99.90;;;;;;6185117;23;20515;-77
2021/08/04 03:03:37;;;;;;;8.27;7.53;;;15.10;99.90;;;;;;6220580;23;20012;-77
2021/08/04 03:06:03;;;;;;;24.67;22.77;;;15.00;99.90;;;;;;6183941;23;20400;-78
2021/08/04 03:08:28;;;;;;;37.78;34.83;;;15.00;99.90;;;;;;6183647;23;20025;-78
2021/08/04 03:10:54;;;;;;;32.33;29.65;;;15.00;99.90;;;;;;6221198;23;20028;-77
2021/08/04 03:13:20;;;;;;;44.47;40.88;;;15.00;99.90;;;;;;6220676;23;20023;-77
2021/08/04 03:15:46;;;;;;;34.22;31.52;;;15.00;99.90;;;;;;6211997;23;20442;-77
2021/08/04 03:18:12;;;;;;;26.60;24.65;;;14.90;99.90;;;;;;6222151;23;20440;-78
2021/08/04 03:20:37;;;;;;;23.48;21.73;;;14.90;99.90;;;;;;6184520;23;20016;-78
2021/08/04 03:23:03;;;;;;;22.45;20.85;;;14.90;99.90;;;;;;6185034;23;20459;-78
2021/08/04 03:25:29;;;;;;;43.90;40.45;;;14.90;99.90;;;;;;6195828;23;20013;-78
2021/08/04 03:27:55;;;;;;;29.02;26.77;;;14.90;99.90;;;;;;6195238;23;20091;-78
2021/08/04 03:30:20;;;;;;;26.52;24.42;;;15.00;99.90;;;;;;6221348;23;20019;-78
2021/08/04 03:32:46;;;;;;;30.25;27.88;;;14.90;99.90;;;;;;6196288;23;20439;-78
2021/08/04 03:35:12;;;;;;;32.45;29.95;;;14.90;99.90;;;;;;6221356;23;20016;-78
2021/08/04 03:37:38;;;;;;;26.85;24.60;;;14.80;99.90;;;;;;6185856;23;20012;-77
2021/08/04 03:40:05;;;;;;;20.30;18.63;;;14.90;99.90;;;;;;6220487;23;20012;-78
2021/08/04 03:42:31;;;;;;;32.00;29.45;;;14.90;99.90;;;;;;6211334;23;20017;-78
2021/08/04 03:44:57;;;;;;;36.47;33.63;;;14.90;99.90;;;;;;6194981;23;20340;-78
2021/08/04 03:47:23;;;;;;;32.42;29.90;;;14.90;99.90;;;;;;6185346;23;20423;-78
2021/08/04 03:49:49;;;;;;;46.78;42.90;;;14.90;99.90;;;;;;6185745;23;20016;-78
2021/08/04 03:52:14;;;;;;;17.70;16.40;;;14.90;99.90;;;;;;6185847;23;20016;-78
2021/08/04 03:54:40;;;;;;;32.75;30.27;;;14.90;99.90;;;;;;6220248;23;20020;-78
2021/08/04 03:57:06;;;;;;;23.08;21.38;;;14.90;99.90;;;;;;6195570;23;20079;-77
2021/08/04 03:59:31;;;;;;;30.45;28.20;;;14.90;99.90;;;;;;6183772;23;20774;-77
2021/08/04 04:01:58;;;;;;;29.70;27.25;;;14.90;99.90;;;;;;6185359;23;20416;-78
2021/08/04 04:04:24;;;;;;;38.42;35.65;;;14.90;99.90;;;;;;6184159;23;20095;-78
2021/08/04 04:06:49;;;;;;;25.20;23.17;;;14.90;99.90;;;;;;6215239;23;20016;-78
2021/08/04 04:09:16;;;;;;;20.63;19.15;;;14.90;99.90;;;;;;6210696;23;20047;-77
2021/08/04 04:11:41;;;;;;;32.67;30.00;;;14.90;99.90;;;;;;6221192;23;20020;-77
2021/08/04 04:14:07;;;;;;;26.48;24.30;;;14.90;99.90;;;;;;6183046;23;20016;-78
2021/08/04 04:16:33;;;;;;;32.47;30.02;;;14.90;99.90;;;;;;6185265;23;20116;-79
2021/08/04 04:18:59;;;;;;;30.35;27.95;;;15.00;99.90;;;;;;6211804;23;20372;-79
2021/08/04 04:21:24;;;;;;;23.60;22.00;;;15.00;99.90;;;;;;6210467;23;20086;-79
2021/08/04 04:23:50;;;;;;;35.63;32.35;;;15.00;99.90;;;;;;6210153;23;20012;-79
2021/08/04 04:26:16;;;;;;;23.80;21.98;;;15.00;99.90;;;;;;6211172;23;20095;-79
2021/08/04 04:28:43;;;;;;;25.15;23.23;;;15.00;99.90;;;;;;6221344;23;20050;-78
2021/08/04 04:31:09;;;;;;;33.30;30.58;;;14.90;99.90;;;;;;6184759;23;20008;-79
2021/08/04 04:33:34;;;;;;;49.08;44.90;;;15.00;99.90;;;;;;6221805;23;20038;-79
2021/08/04 04:36:00;;;;;;;18.63;17.25;;;15.00;99.90;;;;;;6192035;23;20009;-79
2021/08/04 04:38:26;;;;;;;32.25;29.83;;;15.00;99.90;;;;;;6184325;23;20293;-79
2021/08/04 04:40:52;;;;;;;42.90;39.05;;;15.00;99.90;;;;;;6223349;23;20023;-79
2021/08/04 04:43:20;;;;;;;38.00;34.80;;;15.00;99.90;;;;;;6221935;23;20142;-79
2021/08/04 04:45:47;;;;;;;79.07;71.22;;;15.00;99.90;;;;;;6221725;23;20420;-79
2021/08/04 04:48:13;;;;;;;39.67;36.40;;;15.00;99.90;;;;;;6186076;23;20056;-78
2021/08/04 04:50:39;;;;;;;27.15;25.20;;;15.10;99.90;;;;;;6185757;23;20019;-78
2021/08/04 04:53:07;;;;;;;29.92;27.50;;;15.00;99.90;;;;;;6186467;23;20430;-79
2021/08/04 04:55:33;;;;;;;34.90;32.25;;;15.10;99.90;;;;;;6185321;23;20012;-79
2021/08/04 04:57:59;;;;;;;41.97;38.35;;;15.10;99.90;;;;;;6222723;23;20099;-80
2021/08/04 05:00:25;;;;;;;40.50;37.38;;;15.10;99.90;;;;;;6223183;23;20013;-79
2021/08/04 05:02:50;;;;;;;27.75;25.77;;;15.10;99.90;;;;;;6222269;23;20749;-79
2021/08/04 05:05:17;;;;;;;25.55;23.63;;;15.10;99.90;;;;;;6196577;23;20024;-80
2021/08/04 05:07:42;;;;;;;31.63;29.27;;;15.10;99.90;;;;;;6186609;23;20009;-80
2021/08/04 05:10:09;;;;;;;33.83;31.10;;;15.10;99.90;;;;;;6221177;23;20016;-77
2021/08/04 05:12:35;;;;;;;45.60;41.80;;;15.20;99.90;;;;;;6224043;23;20047;-77
2021/08/04 05:15:01;;;;;;;42.83;39.33;;;15.20;99.90;;;;;;6186833;23;20107;-80
2021/08/04 05:17:26;;;;;;;33.17;30.50;;;15.20;99.90;;;;;;6214346;23;20013;-80
2021/08/04 05:19:52;;;;;;;36.50;33.72;;;15.20;99.90;;;;;;6162219;23;20039;-80
2021/08/04 05:22:18;;;;;;;51.08;46.40;;;15.20;99.90;;;;;;6215293;23;20016;-81
2021/08/04 05:24:44;;;;;;;40.28;36.80;;;15.30;99.90;;;;;;6222787;23;20304;-77
2021/08/04 05:27:10;;;;;;;9.82;9.02;;;15.30;99.90;;;;;;6223133;23;20009;-80
2021/08/04 05:29:36;;;;;;;55.67;49.67;;;15.40;99.90;;;;;;6222920;23;20048;-79
2021/08/04 05:32:03;;;;;;;32.33;29.67;;;15.30;99.90;;;;;;6186730;23;20012;-80
2021/08/04 05:34:29;;;;;;;50.05;45.67;;;15.40;99.90;;;;;;6212809;23;20009;-80
2021/08/04 05:36:54;;;;;;;37.60;34.63;;;15.40;99.90;;;;;;6190324;23;20012;-79
2021/08/04 05:39:20;;;;;;;42.75;39.35;;;15.40;99.90;;;;;;6196064;23;20044;-80
2021/08/04 05:41:46;;;;;;;25.00;23.00;;;15.30;99.90;;;;;;6223698;23;20015;-80
2021/08/04 05:44:12;;;;;;;49.55;44.63;;;15.40;99.90;;;;;;6210676;23;20040;-77
2021/08/04 05:46:38;;;;;;;60.92;55.65;;;15.40;99.90;;;;;;6186772;23;20016;-76
2021/08/04 05:49:04;;;;;;;27.38;25.20;;;15.50;99.90;;;;;;6186432;23;20067;-80
2021/08/04 05:51:29;;;;;;;41.47;38.10;;;15.50;99.90;;;;;;6185855;23;20016;-80
2021/08/04 05:53:55;;;;;;;31.33;28.85;;;15.50;99.90;;;;;;6184710;23;20028;-80
2021/08/04 05:56:21;;;;;;;28.52;26.30;;;15.50;99.90;;;;;;6222289;23;20088;-80
2021/08/04 05:58:47;;;;;;;34.15;31.42;;;15.50;99.90;;;;;;6219228;23;20486;-79
2021/08/04 06:01:13;;;;;;;29.15;27.00;;;15.50;99.90;;;;;;6185002;23;20432;-79
2021/08/04 06:03:39;;;;;;;51.22;46.55;;;15.60;99.90;;;;;;6222393;23;20016;-81
2021/08/04 06:06:04;;;;;;;68.35;61.45;;;15.60;99.90;;;;;;6219767;23;20455;-78
2021/08/04 06:08:31;;;;;;;45.88;41.80;;;15.60;99.90;;;;;;6222187;23;20019;-80
2021/08/04 06:10:57;;;;;;;59.63;53.63;;;15.60;99.90;;;;;;6185619;23;20008;-80
2021/08/04 06:13:23;;;;;;;55.20;50.28;;;15.60;99.90;;;;;;6212505;23;20028;-77
2021/08/04 06:15:50;;;;;;;66.53;60.17;;;15.60;99.90;;;;;;6184781;23;20023;-80
2021/08/04 06:18:16;;;;;;;32.75;30.17;;;15.70;99.90;;;;;;6222708;23;20068;-80
2021/08/04 06:20:42;;;;;;;58.90;53.95;;;15.70;99.90;;;;;;6186255;23;20122;-78
2021/08/04 06:23:07;;;;;;;41.72;38.50;;;15.70;99.90;;;;;;6221741;23;20095;-81
2021/08/04 06:25:34;;;;;;;27.67;25.38;;;15.70;99.90;;;;;;6222530;23;20022;-81
2021/08/04 06:28:00;;;;;;;58.33;52.97;;;15.70;99.90;;;;;;6186432;23;20013;-80
2021/08/04 06:30:25;;;;;;;63.97;57.55;;;15.70;99.90;;;;;;6222923;23;20024;-78
2021/08/04 06:32:51;;;;;;;58.83;53.05;;;15.70;99.90;;;;;;6221821;23;20021;-80
2021/08/04 06:35:17;;;;;;;33.60;30.88;;;15.70;99.90;;;;;;6195506;23;20122;-78
2021/08/04 06:37:43;;;;;;;48.33;43.97;;;15.80;99.90;;;;;;6185591;23;20017;-79
2021/08/04 06:40:09;;;;;;;34.83;31.70;;;15.80;99.90;;;;;;6211883;23;20017;-78
2021/08/04 06:42:41;;;;;;;55.53;50.85;;;15.90;99.90;;;;;;6197464;23;20082;-80
2021/08/04 06:45:09;;;;;;;17.70;16.40;;;15.90;99.90;;;;;;6186041;23;20040;-79
2021/08/04 06:47:35;;;;;;;92.20;81.90;;;16.00;99.90;;;;;;6222543;23;20092;-78
2021/08/04 06:50:01;;;;;;;57.35;52.13;;;16.00;99.90;;;;;;6222168;23;20052;-81
2021/08/04 06:52:28;;;;;;;94.00;84.50;;;16.00;99.90;;;;;;6185538;23;20021;-81
2021/08/04 06:54:54;;;;;;;73.05;65.45;;;16.00;99.90;;;;;;6185477;23;20005;-86
2021/08/04 06:57:20;;;;;;;39.33;36.20;;;16.10;99.90;;;;;;6160966;23;20314;-76
2021/08/04 06:59:47;;;;;;;73.25;65.70;;;16.10;99.90;;;;;;6222624;23;20013;-81
2021/08/04 07:02:12;;;;;;;70.50;62.83;;;16.20;99.90;;;;;;6222633;23;20016;-82
2021/08/04 07:04:38;;;;;;;21.55;19.90;;;16.30;99.90;;;;;;6221839;23;20393;-81
2021/08/04 07:07:04;;;;;;;48.30;43.83;;;16.30;99.90;;;;;;6185197;23;20013;-82
2021/08/04 07:09:34;;;;;;;57.58;52.03;;;16.50;99.90;;;;;;6210915;23;20059;-83
2021/08/04 07:12:01;;;;;;;67.68;60.60;;;16.60;99.90;;;;;;6222896;23;20028;-82
2021/08/04 07:14:27;;;;;;;30.10;27.67;;;16.70;99.90;;;;;;6221464;23;20040;-79
2021/08/04 07:16:53;;;;;;;70.43;63.80;;;16.80;99.90;;;;;;6195895;23;20009;-82
2021/08/04 07:19:19;;;;;;;15.65;14.30;;;16.90;99.90;;;;;;6212300;23;20009;-82
2021/08/04 07:21:44;;;;;;;52.25;47.58;;;17.00;99.90;;;;;;6218098;23;20016;-79
2021/08/04 07:24:11;;;;;;;36.95;33.85;;;17.10;99.90;;;;;;6184247;23;20771;-81
2021/08/04 07:26:38;;;;;;;78.10;70.82;;;17.30;99.90;;;;;;6195912;23;20020;-80
2021/08/04 07:29:05;;;;;;;58.97;53.63;;;17.40;99.90;;;;;;6221764;23;20024;-81
2021/08/04 07:31:32;;;;;;;150.75;134.45;;;17.70;99.90;;;;;;6186225;23;20096;-78
2021/08/04 07:33:58;;;;;;;65.20;54.53;;;17.80;99.90;;;;;;6212367;23;20028;-80
2021/08/04 07:36:24;;;;;;;55.47;36.70;;;18.00;99.90;;;;;;6219942;23;20400;-80
2021/08/04 07:38:50;;;;;;;104.88;78.28;;;18.10;99.90;;;;;;6184450;23;20032;-79
2021/08/04 07:41:16;;;;;;;59.50;53.50;;;18.30;99.90;;;;;;6185396;23;20019;-80
2021/08/04 07:43:42;;;;;;;73.15;55.53;;;18.40;99.90;;;;;;6222198;23;20420;-80
2021/08/04 07:46:09;;;;;;;105.55;78.88;;;18.40;99.90;;;;;;6161166;23;20376;-80
2021/08/04 07:48:35;;;;;;;55.45;50.33;;;18.40;99.90;;;;;;6222595;23;20017;-80
2021/08/04 07:51:02;;;;;;;69.60;61.35;;;18.50;99.90;;;;;;6160630;23;20032;-80
2021/08/04 07:53:29;;;;;;;37.67;33.63;;;18.60;99.90;;;;;;6184177;23;20027;-80
2021/08/04 07:55:55;;;;;;;123.65;95.40;;;18.50;99.90;;;;;;6185784;23;20024;-81
2021/08/04 07:58:21;;;;;;;158.98;134.02;;;18.50;99.90;;;;;;6212984;23;20337;-79
2021/08/04 08:00:47;;;;;;;120.32;88.93;;;18.50;99.90;;;;;;6222768;23;20023;-79
2021/08/04 08:03:13;;;;;;;80.72;68.10;;;18.60;99.90;;;;;;6222485;23;20013;-79
2021/08/04 08:05:38;;;;;;;65.10;53.28;;;18.60;99.90;;;;;;6223497;23;20418;-80
2021/08/04 08:08:05;;;;;;;48.70;43.95;;;18.60;99.90;;;;;;6211590;23;20012;-79
2021/08/04 08:10:32;;;;;;;77.85;58.38;;;18.70;99.90;;;;;;6211202;23;20277;-80
2021/08/04 08:12:59;;;;;;;154.25;112.03;;;18.70;99.90;;;;;;6185408;23;20017;-77
2021/08/04 08:15:26;;;;;;;58.15;52.42;;;18.80;99.90;;;;;;6187068;23;20025;-79
2021/08/04 08:17:52;;;;;;;101.18;79.25;;;18.80;99.90;;;;;;6213773;23;20051;-80
2021/08/04 08:20:19;;;;;;;87.47;63.70;;;18.80;99.90;;;;;;6223853;23;20032;-78
2021/08/04 08:22:46;;;;;;;115.97;85.68;;;18.90;99.90;;;;;;6215458;23;20012;-79
2021/08/04 08:25:13;;;;;;;163.55;113.10;;;18.90;99.90;;;;;;6223965;23;20059;-77
2021/08/04 08:27:39;;;;;;;114.28;95.65;;;18.80;99.90;;;;;;6186602;23;20098;-79
2021/08/04 08:30:06;;;;;;;68.05;49.42;;;18.90;99.90;;;;;;6214643;23;20016;-82
2021/08/04 08:32:32;;;;;;;79.13;63.30;;;19.00;99.90;;;;;;6224056;23;20017;-79
2021/08/04 08:34:58;;;;;;;87.60;64.70;;;18.90;99.90;;;;;;6213999;23;20466;-80
2021/08/04 08:37:24;;;;;;;166.32;111.90;;;18.90;99.90;;;;;;6219160;23;20417;-79
2021/08/04 08:39:50;;;;;;;139.10;89.10;;;19.00;99.90;;;;;;6186950;23;20490;-78
2021/08/04 08:42:20;;;;;;;99.88;85.22;;;19.30;99.90;;;;;;6187298;23;20020;-77
2021/08/04 08:44:47;;;;;;;102.43;86.13;;;19.50;99.90;;;;;;6188049;23;20395;-79
2021/08/04 08:47:14;;;;;;;119.60;83.15;;;19.80;99.90;;;;;;6214852;23;20096;-79
2021/08/04 08:49:42;;;;;;;90.78;70.25;;;19.90;99.90;;;;;;6214285;23;20457;-79
2021/08/04 08:52:08;;;;;;;124.05;100.07;;;20.00;99.90;;;;;;6214519;23;20123;-79
2021/08/04 08:54:34;;;;;;;113.15;76.63;;;20.10;99.90;;;;;;6223616;23;20012;-81
2021/08/04 08:57:00;;;;;;;139.93;97.25;;;20.10;99.90;;;;;;6224324;23;20392;-78
2021/08/04 08:59:27;;;;;;;172.13;123.50;;;20.40;99.90;;;;;;6186485;23;20040;-77
2021/08/04 09:01:53;;;;;;;116.38;74.35;;;20.60;99.90;;;;;;6224301;23;20017;-73
2021/08/04 09:04:19;;;;;;;77.20;63.20;;;20.60;99.90;;;;;;6214036;23;20100;-76
2021/08/04 09:07:05;;;;;;;150.23;92.20;;;20.80;99.90;;;;;;6220236;23;20013;-76
2021/08/04 09:09:34;;;;;;;137.40;100.30;;;21.00;99.90;;;;;;6212752;23;20012;-75
2021/08/04 09:12:09;;;;;;;167.30;113.57;;;21.10;99.90;;;;;;6224082;23;20344;-77
2021/08/04 09:14:37;;;;;;;155.93;109.18;;;21.20;99.90;;;;;;6213254;23;20040;-78
2021/08/04 09:17:05;;;;;;;137.48;113.30;;;21.20;99.90;;;;;;6213895;23;20020;-78
2021/08/04 09:19:32;;;;;;;161.40;117.63;;;21.30;99.90;;;;;;6187797;23;20021;-78
2021/08/04 09:22:24;;;;;;;105.82;79.38;;;21.40;99.90;;;;;;6214468;23;20035;-78
2021/08/04 09:24:53;;;;;;;208.00;133.57;;;21.40;99.90;;;;;;6185513;23;20346;-77
2021/08/04 09:27:19;;;;;;;127.10;87.53;;;21.20;99.90;;;;;;6185727;23;20412;-78
2021/08/04 09:29:58;;;;;;;166.73;131.23;;;21.10;99.90;;;;;;6212923;23;20028;-79
2021/08/04 09:32:26;;;;;;;76.53;63.97;;;20.80;99.90;;;;;;6213458;23;20037;-77
2021/08/04 09:34:52;;;;;;;155.63;98.13;;;21.00;99.90;;;;;;6222571;23;20084;-79
2021/08/04 09:37:20;;;;;;;128.05;87.70;;;20.90;99.90;;;;;;6186609;23;20012;-77
2021/08/04 09:39:58;;;;;;;150.73;106.95;;;20.90;99.90;;;;;;6221658;23;20063;-76
2021/08/04 09:42:57;;;;;;;137.52;94.07;;;21.00;99.90;;;;;;6223102;23;20016;-75
2021/08/04 09:45:36;;;;;;;111.80;82.38;;;21.00;99.90;;;;;;6067226;23;20113;-77
2021/08/04 09:48:07;;;;;;;207.88;147.88;;;21.00;99.90;;;;;;6098898;23;20026;-76
2021/08/04 09:50:53;;;;;;;65.82;53.53;;;21.20;99.90;;;;;;6067806;23;20400;-77
2021/08/04 09:53:25;;;;;;;106.43;80.97;;;21.10;99.90;;;;;;6091504;23;20022;-75
2021/08/04 09:56:16;;;;;;;104.65;76.93;;;21.20;99.90;;;;;;6093911;23;20014;-80
2021/08/04 09:58:45;;;;;;;147.95;92.57;;;21.30;99.90;;;;;;6067646;23;20014;-77
2021/08/04 10:01:13;;;;;;;163.85;127.88;;;21.50;99.90;;;;;;6074170;23;20029;-80
2021/08/04 10:04:01;;;;;;;82.72;74.22;;;21.50;99.90;;;;;;6100740;23;20022;-80
2021/08/04 10:07:17;;;;;;;165.73;122.63;;;21.40;99.90;;;;;;6098883;23;20080;-80
2021/08/04 10:09:43;;;;;;;146.98;98.15;;;21.30;99.90;;;;;;6033252;23;20020;-81
2021/08/04 10:12:13;;;;;;;172.50;134.60;;;21.50;99.90;;;;;;6016359;23;20023;-79
2021/08/04 10:14:40;;;;;;;191.05;127.63;;;21.60;99.90;;;;;;6038353;23;20015;-80
2021/08/04 10:17:06;;;;;;;121.40;82.25;;;21.70;99.90;;;;;;5987432;23;20022;-78
2021/08/04 10:19:32;;;;;;;113.97;73.35;;;22.00;99.90;;;;;;6039557;23;20533;-81
2021/08/04 10:22:00;;;;;;;189.25;143.15;;;21.90;99.90;;;;;;6115082;23;20465;-78
2021/08/04 10:24:26;;;;;;;170.88;119.25;;;21.70;99.90;;;;;;6106760;23;20064;-80
2021/08/04 10:26:53;;;;;;;181.10;117.35;;;21.60;99.90;;;;;;6122136;23;20049;-81
2021/08/04 10:29:22;;;;;;;167.35;107.32;;;21.30;99.90;;;;;;6131596;23;20405;-81
2021/08/04 10:31:49;;;;;;;265.48;193.93;;;21.20;99.90;;;;;;6129698;23;20029;-81
2021/08/04 10:34:15;;;;;;;248.75;176.07;;;21.20;99.90;;;;;;6096658;23;20021;-80
2021/08/04 10:36:41;;;;;;;160.70;93.90;;;21.30;99.90;;;;;;6131350;23;20346;-79
2021/08/04 10:39:13;;;;;;;175.15;120.00;;;21.70;99.90;;;;;;6124572;23;20078;-81
2021/08/04 10:41:57;;;;;;;91.97;71.07;;;22.10;99.90;;;;;;6130861;23;20092;-80
2021/08/04 10:44:23;;;;;;;217.82;143.23;;;22.60;99.90;;;;;;6083871;23;20377;-81
2021/08/04 10:46:50;;;;;;;168.02;100.05;;;22.70;99.90;;;;;;6186894;23;20026;-80
2021/08/04 10:49:35;;;;;;;136.40;101.10;;;22.50;99.90;;;;;;6187213;23;20013;-82
2021/08/04 10:52:01;;;;;;;160.55;102.03;;;22.60;99.90;;;;;;6161965;23;20024;-82
2021/08/04 10:54:30;;;;;;;191.15;117.95;;;22.60;99.90;;;;;;6184670;23;20009;-79
2021/08/04 10:56:56;;;;;;;115.07;76.38;;;22.60;99.90;;;;;;6186714;23;20011;-79
2021/08/04 10:59:29;;;;;;;105.10;74.43;;;22.20;99.90;;;;;;6222208;23;20017;-76
2021/08/04 11:02:04;;;;;;;154.88;98.20;;;22.20;99.90;;;;;;6223597;23;20009;-77
2021/08/04 11:04:29;;;;;;;135.20;83.47;;;22.30;99.90;;;;;;6186019;23;20096;-79
2021/08/04 11:07:17;;;;;;;138.55;87.30;;;22.40;99.90;;;;;;6186566;23;20366;-77
2021/08/04 11:09:56;;;;;;;201.48;120.72;;;22.90;99.90;;;;;;6221668;23;20044;-80
2021/08/04 11:12:41;;;;;;;131.32;87.22;;;22.70;99.90;;;;;;6213141;23;20038;-77
2021/08/04 11:15:20;;;;;;;;;;;22.80;99.90;;;;;;6180844;23;20112;-78
2021/08/04 11:18:13;;;;;;;198.70;136.52;;;22.50;99.90;;;;;;6180059;23;20026;-78
2021/08/04 11:21:00;;;;;;;190.55;117.15;;;22.70;99.90;;;;;;6176287;23;20046;-78
2021/08/04 11:23:46;;;;;;;177.18;122.28;;;22.70;99.90;;;;;;6179343;23;20329;-78
2021/08/04 11:26:32;;;;;;;236.40;159.55;;;22.90;99.90;;;;;;6182123;23;20017;-79
2021/08/04 11:28:59;;;;;;;171.05;104.07;;;23.50;99.90;;;;;;6180092;23;20017;-80
2021/08/04 11:31:25;;;;;;;108.30;77.82;;;23.80;99.90;;;;;;6192361;23;20013;-79
2021/08/04 11:33:51;;;;;;;140.20;89.35;;;24.00;99.90;;;;;;6191511;23;20100;-79
2021/08/04 11:36:25;;;;;;;179.02;116.35;;;24.30;99.90;;;;;;6191003;23;20092;-80
2021/08/04 11:39:07;;;;;;;158.88;97.50;;;24.80;99.10;;;;;;6179138;23;20330;-78
2021/08/04 11:41:44;;;;;;;165.52;107.38;;;24.50;97.20;;;;;;6182262;23;20029;-79
2021/08/04 11:44:14;;;;;;;120.90;78.60;;;24.50;96.50;;;;;;6191985;23;20083;-80
2021/08/04 11:46:43;;;;;;;132.90;92.45;;;24.40;96.80;;;;;;6182267;23;20132;-80
2021/08/04 11:49:12;;;;;;;141.40;92.00;;;24.30;96.70;;;;;;6180672;23;20025;-81
2021/08/04 11:51:44;;;;;;;152.80;98.05;;;24.50;96.90;;;;;;6157438;23;20126;-81
2021/08/04 11:54:11;;;;;;;141.38;92.10;;;23.90;96.40;;;;;;6191883;23;20013;-81
2021/08/04 11:56:47;;;;;;;151.73;90.38;;;23.80;96.50;;;;;;6194466;23;20014;-79
2021/08/04 11:59:15;;;;;;;125.07;76.25;;;23.70;96.60;;;;;;6181702;23;20045;-81
2021/08/04 12:01:53;;;;;;;144.30;96.18;;;24.40;98.10;;;;;;6157367;23;20472;-77
2021/08/04 12:04:19;;;;;;;164.77;105.95;;;24.00;97.30;;;;;;6193995;23;20172;-76
2021/08/04 12:07:05;;;;;;;169.45;106.55;;;24.20;96.60;;;;;;6184658;23;20090;-79
2021/08/04 12:09:34;;;;;;;97.82;67.90;;;23.80;96.20;;;;;;6193303;23;20020;-77
2021/08/04 12:12:01;;;;;;;122.10;80.25;;;23.60;97.10;;;;;;6183350;23;20021;-78
2021/08/04 12:14:27;;;;;;;159.27;107.78;;;23.20;97.80;;;;;;6183913;23;20017;-78
2021/08/04 12:16:57;;;;;;;146.63;88.70;;;22.90;98.50;;;;;;6188202;23;20479;-76
2021/08/04 12:19:38;;;;;;;86.57;63.33;;;22.90;98.60;;;;;;6211898;23;20399;-76
2021/08/04 12:22:14;;;;;;;119.78;78.05;;;22.80;99.20;;;;;;6222407;23;20040;-77
2021/08/04 12:24:49;;;;;;;129.45;83.32;;;23.20;99.70;;;;;;6223438;23;20084;-76
2021/08/04 12:27:48;;;;;;;135.75;85.00;;;23.60;99.20;;;;;;6224078;23;20034;-75
2021/08/04 12:30:33;;;;;;;145.23;97.15;;;24.30;99.40;;;;;;6212620;23;20016;-77
2021/08/04 12:36:23;;;;;;;125.25;82.75;;;24.20;98.50;;;;;;6224016;23;20444;-78